VVPB/HUI METAR and TAF weather

Enter ICAO airport designator
Station Type Date Time Source
VVPB METAR 2020/08/12 18:00 UTC NOAA

VVPB 121800Z VRB02KT 9999 FEW017 BKN060 28/23 Q1007 NOSIG


Station Type Date Time Source
VVPB Decoded METAR 2020/08/12 18:00 UTC NOAA

Hue, Vietnam (VVPB) 16-24N 107-41E 17M
Aug 12, 2020 - 02:00 PM EDT / 2020.08.12 1800 UTC
Wind: Variable at 2 MPH (2 KT):0
Visibility: greater than 7 mile(s):0
Sky conditions: mostly cloudy
Temperature: 82 F (28 C)
Dew Point: 73 F (23 C)
Relative Humidity: 74%
Pressure (altimeter): 29.74 in. Hg (1007 hPa)
ob: VVPB 121800Z VRB02KT 9999 FEW017 BKN060 28/23 Q1007 NOSIG
cycle: 18

Station Type Date Time Source
VVPB TAF 2020/08/12 18:00 UTC NOAA

TAF VVPB 121700Z 1218/1318 23004KT 9999 FEW017 BKN060
TEMPO 1220/1224 4000 SHRA SCT013 FEW017CB BKN060
TEMPO 1308/1312 3500 TSRA SCT010 FEW015CB BKN050

Example: see airport list